Time;durP1;ratioP1;P1;durP2;ratioP2;P2;SDS_P1;SDS_P2;PMS_P1;PMS_P2;Temp;Humidity;BMP_temperature;BMP_pressure;BME280_temperature;BME280_humidity;BME280_pressure;Samples;Min_cycle;Max_cycle;Signal;HPM_P1;HPM_P2
2022/12/30 00:02:03;;;;;;;;;106.33;91.00;;;;;0.57;100.00;99915.25;6280668;20;3686879;-50
2022/12/30 00:04:33;;;;;;;;;112.67;93.33;;;;;0.77;100.00;99935.19;6275951;20;3695079;-49
2022/12/30 00:07:03;;;;;;;;;114.33;97.00;;;;;0.81;100.00;99931.59;6281132;20;3701346;-48
2022/12/30 00:09:33;;;;;;;;;118.33;107.33;;;;;0.85;100.00;99922.72;6280486;20;3688854;-50
2022/12/30 00:33:06;;;;;;;;;120.00;92.00;;;;;0.90;100.00;99915.56;6281190;20;3700302;-49
2022/12/30 00:35:24;;;;;;;;;106.00;87.33;;;;;1.02;100.00;99930.31;6278010;20;3687855;-52
2022/12/30 00:37:53;;;;;;;;;118.00;102.67;;;;;0.86;100.00;99916.50;6278589;20;3702369;-51
2022/12/30 00:40:23;;;;;;;;;95.00;74.00;;;;;1.01;100.00;99924.16;6279118;20;3650497;-49
2022/12/30 00:43:09;;;;;;;;;111.75;83.75;;;;;1.19;100.00;99917.66;6313226;20;3709670;-51
2022/12/30 00:45:42;;;;;;;;;108.33;94.00;;;;;1.17;100.00;99915.94;6310850;20;3660771;-49
2022/12/30 00:56:36;;;;;;;;;106.67;91.00;;;;;1.26;100.00;99910.47;6278625;20;3691911;-49
2022/12/30 00:59:06;;;;;;;;;102.00;75.67;;;;;0.91;100.00;99913.78;6275676;20;3680455;-50
2022/12/30 01:01:36;;;;;;;;;101.67;80.67;;;;;1.17;100.00;99913.31;6284992;20;3687873;-51
2022/12/30 01:04:06;;;;;;;;;110.67;92.00;;;;;1.05;100.00;99915.28;6281303;20;3694029;-51
2022/12/30 01:06:37;;;;;;;;;104.00;83.33;;;;;0.87;100.00;99915.63;6286687;20;3672141;-49
2022/12/30 01:09:07;;;;;;;;;108.00;92.33;;;;;1.05;100.00;99907.34;6282629;20;3699207;-48
2022/12/30 01:11:37;;;;;;;;;104.00;88.33;;;;;0.95;100.00;99913.72;6284734;20;3685668;-48
2022/12/30 01:14:06;;;;;;;;;103.33;92.33;;;;;0.88;100.00;99896.22;6286663;20;3669008;-50
2022/12/30 01:16:36;;;;;;;;;112.33;93.33;;;;;1.09;100.00;99901.09;6283712;20;3692995;-52
2022/12/30 01:19:05;;;;;;;;;112.67;94.33;;;;;0.88;100.00;99896.22;6284364;20;3676436;-53
2022/12/30 01:21:35;;;;;;;;;115.00;90.67;;;;;0.67;100.00;99891.34;6282293;20;3704416;-51
2022/12/30 01:24:05;;;;;;;;;122.67;101.33;;;;;1.08;100.00;99894.06;6283847;20;3711746;-49
2022/12/30 01:26:35;;;;;;;;;110.00;89.00;;;;;0.94;100.00;99888.16;6283986;20;3702418;-49
2022/12/30 01:29:05;;;;;;;;;109.00;91.00;;;;;0.92;100.00;99876.75;6284174;20;3702375;-50
2022/12/30 01:31:35;;;;;;;;;111.33;88.67;;;;;0.95;100.00;99884.63;6282643;20;3694467;-48
2022/12/30 01:34:05;;;;;;;;;111.67;92.67;;;;;0.93;100.00;99893.50;6283096;20;3691019;-52
2022/12/30 01:36:36;;;;;;;;;114.67;93.67;;;;;0.87;100.00;99890.06;6284509;20;3687885;-50
2022/12/30 01:39:06;;;;;;;;;118.00;94.00;;;;;1.01;100.00;99891.56;6281954;20;3682547;-51
2022/12/30 01:41:36;;;;;;;;;109.67;89.67;;;;;0.87;100.00;99894.50;6282214;20;3703579;-47
2022/12/30 01:44:59;;;;;;;;;107.33;96.33;;;;;1.10;100.00;99897.53;6285894;20;3679563;-48
2022/12/30 01:47:54;;;;;;;;;108.00;87.67;;;;;0.98;100.00;99889.88;6279453;20;3692062;-49
2022/12/30 01:50:54;;;;;;;;;111.33;94.00;;;;;0.90;100.00;99894.44;6279075;20;3677399;-52
2022/12/30 01:53:29;;;;;;;;;110.67;94.00;;;;;1.04;100.00;99896.81;6283701;20;3681561;-47
2022/12/30 01:56:29;;;;;;;;;117.33;95.00;;;;;1.01;100.00;99889.78;6282275;20;3687113;-52
2022/12/30 01:59:15;;;;;;;;;118.67;92.33;;;;;1.03;100.00;99890.66;6278190;20;3691926;-49
2022/12/30 02:01:46;;;;;;;;;110.00;91.67;;;;;1.07;100.00;99875.59;6279840;20;3681623;-48
2022/12/30 02:04:22;;;;;;;;;102.67;84.67;;;;;1.09;100.00;99887.00;6282123;20;3697187;-50
2022/12/30 02:07:27;;;;;;;;;106.67;85.33;;;;;0.91;100.00;99880.28;6284364;20;3705490;-47
2022/12/30 02:09:58;;;;;;;;;117.67;92.33;;;;;0.86;100.00;99879.50;6276782;20;3672124;-49
2022/12/30 02:12:28;;;;;;;;;130.00;96.00;;;;;0.92;100.00;99875.88;6282836;20;3703378;-51
2022/12/30 02:14:58;;;;;;;;;120.33;92.33;;;;;1.17;100.00;99865.69;6314369;20;3689922;-50
2022/12/30 02:17:36;;;;;;;;;121.33;100.67;;;;;1.17;100.00;99865.69;6279486;20;3708739;-51
2022/12/30 02:20:41;;;;;;;;;119.33;103.67;;;;;1.11;100.00;99858.78;6276265;20;3687882;-48
2022/12/30 02:23:47;;;;;;;;;113.00;93.00;;;;;1.19;100.00;99861.25;6283490;20;3677433;-47
2022/12/30 02:26:50;;;;;;;;;116.67;92.00;;;;;1.00;100.00;99858.09;6280672;20;3683817;-51
2022/12/30 02:30:18;;;;;;;;;127.67;99.67;;;;;1.14;100.00;99857.84;6281467;20;3714864;-53
2022/12/30 02:33:20;;;;;;;;;120.00;95.00;;;;;0.79;100.00;99855.00;6281275;20;3677326;-53
2022/12/30 02:36:02;;;;;;;;;143.25;105.75;;;;;0.93;100.00;99845.91;6274286;20;3725285;-47
2022/12/30 02:38:43;;;;;;;;;128.50;102.00;;;;;0.99;100.00;99851.94;6279411;20;3708719;-54
2022/12/30 02:44:37;;;;;;;;;127.50;102.00;;;;;0.96;100.00;99845.84;6313376;20;3701363;-50
2022/12/30 02:47:34;;;;;;;;;127.00;92.33;;;;;0.99;100.00;99846.66;6308413;20;3694066;-51
2022/12/30 02:53:06;;;;;;;;;103.00;82.67;;;;;1.02;100.00;99853.66;6281305;20;3687789;-49
2022/12/30 02:55:35;;;;;;;;;127.00;92.00;;;;;1.03;100.00;99853.63;6281984;20;3700309;-49
2022/12/30 02:58:05;;;;;;;;;127.33;96.00;;;;;0.96;100.00;99859.94;6282119;20;3685697;-52
2022/12/30 03:04:59;;;;;;;;;130.00;100.00;;;;;1.01;100.00;99859.84;6280757;20;3702452;-48
2022/12/30 03:07:54;;;;;;;;;144.75;111.50;;;;;1.04;100.00;99867.72;6282595;20;4495017;-47
2022/12/30 03:11:13;;;;;;;;;128.50;98.50;;;;;0.95;100.00;99874.06;6274738;20;3719227;-47
2022/12/30 03:14:16;;;;;;;;;121.00;93.33;;;;;1.15;100.00;99871.00;6313095;20;3682635;-48
2022/12/30 03:16:58;;;;;;;;;141.00;112.75;;;;;1.22;100.00;99869.13;6277770;20;4491907;-48
2022/12/30 03:19:38;;;;;;;;;128.00;108.50;;;;;1.33;100.00;99875.06;6310947;20;4475229;-47
2022/12/30 03:27:03;;;;;;;;;127.67;107.33;;;;;1.09;100.00;99864.06;6280541;20;3710723;-48
2022/12/30 03:27:59;;;;;;;;;142.50;116.00;;;;;1.07;100.00;99860.59;6278398;20;3718022;-48
2022/12/30 03:30:32;;;;;;;;;121.67;82.67;;;;;1.18;100.00;99854.22;6275607;20;3678428;-48
2022/12/30 03:33:00;;;;;;;;;139.50;109.00;;;;;1.45;100.00;99851.00;6272182;20;1961577;-51
2022/12/30 03:35:39;;;;;;;;;185.00;144.75;;;;;1.20;100.00;99855.06;6277001;20;3722224;-50
2022/12/30 03:38:10;;;;;;;;;150.50;110.00;;;;;1.14;100.00;99850.75;6306968;20;1957647;-50
2022/12/30 03:40:44;;;;;;;;;144.75;107.75;;;;;1.00;100.00;99853.69;6275468;20;3719025;-51
2022/12/30 03:43:16;;;;;;;;;141.25;106.75;;;;;0.82;100.00;99848.78;6281038;20;4495067;-47
2022/12/30 03:45:46;;;;;;;;;129.00;100.00;;;;;1.09;100.00;99845.56;6306519;20;3715976;-47
2022/12/30 03:48:17;;;;;;;;;149.50;113.75;;;;;1.07;100.00;99849.16;6277323;20;3715089;-48
2022/12/30 03:50:47;;;;;;;;;142.25;101.50;;;;;0.90;100.00;99841.56;6309589;20;3720177;-48
2022/12/30 03:53:18;;;;;;;;;149.75;113.50;;;;;0.94;100.00;99845.88;6280208;20;3725449;-52
2022/12/30 03:55:48;;;;;;;;;146.00;101.00;;;;;0.95;100.00;99839.69;6279095;20;3711841;-53
2022/12/30 03:58:18;;;;;;;;;142.50;105.25;;;;;0.95;100.00;99845.00;6278653;20;3727457;-47
2022/12/30 04:00:51;;;;;;;;;119.00;99.33;;;;;1.03;100.00;99848.34;6275025;20;3703394;-51
2022/12/30 04:03:21;;;;;;;;;143.75;102.50;;;;;0.88;100.00;99853.94;6281153;20;4468981;-51
2022/12/30 04:05:55;;;;;;;;;120.00;90.00;;;;;1.03;100.00;99837.78;6275411;20;3701277;-50
2022/12/30 04:08:26;;;;;;;;;133.25;98.00;;;;;1.06;100.00;99836.84;6279320;20;4485795;-49
2022/12/30 04:10:55;;;;;;;;;113.00;94.33;;;;;1.06;100.00;99832.41;6310248;20;3681554;-54
2022/12/30 04:13:26;;;;;;;;;134.50;105.25;;;;;1.02;100.00;99837.78;6276505;20;4494003;-50
2022/12/30 04:15:56;;;;;;;;;128.33;97.67;;;;;0.90;100.00;99833.63;6278643;20;3700367;-51
2022/12/30 04:18:27;;;;;;;;;133.00;106.50;;;;;0.88;100.00;99832.78;6281523;20;4490863;-52
2022/12/30 04:20:57;;;;;;;;;127.25;102.00;;;;;1.02;100.00;99837.78;6280607;20;4478360;-53
2022/12/30 04:23:27;;;;;;;;;126.00;103.00;;;;;1.09;100.00;99832.34;6279966;20;3711740;-52
2022/12/30 04:25:56;;;;;;;;;125.67;96.33;;;;;0.79;100.00;99833.84;6279300;20;3682664;-50
2022/12/30 04:28:27;;;;;;;;;140.00;103.75;;;;;0.64;100.00;99837.63;6279148;20;3719016;-52
2022/12/30 04:30:56;;;;;;;;;119.33;92.33;;;;;0.75;100.00;99837.44;6276189;20;3691941;-50
2022/12/30 04:33:26;;;;;;;;;134.00;104.00;;;;;0.97;100.00;99837.00;6280351;20;3704613;-50
2022/12/30 04:35:57;;;;;;;;;127.50;93.25;;;;;0.72;100.00;99841.91;6283029;20;3707676;-51
2022/12/30 04:38:27;;;;;;;;;168.00;128.75;;;;;1.23;100.00;99841.75;6284220;20;3698368;-51
2022/12/30 04:40:58;;;;;;;;;143.50;109.50;;;;;1.05;100.00;99849.19;6282735;20;3721293;-53
2022/12/30 04:43:28;;;;;;;;;131.50;101.25;;;;;0.97;100.00;99848.44;6280967;20;3711893;-53
2022/12/30 04:45:58;;;;;;;;;130.67;94.67;;;;;1.03;100.00;99848.34;6281294;20;3706803;-48
2022/12/30 04:48:28;;;;;;;;;131.67;99.67;;;;;1.21;100.00;99840.91;6285013;20;3699291;-51
2022/12/30 04:50:58;;;;;;;;;142.25;104.50;;;;;1.00;100.00;99837.84;6287223;20;3719217;-50
2022/12/30 04:53:29;;;;;;;;;137.50;103.00;;;;;1.24;100.00;99840.88;6283662;20;3724282;-50
2022/12/30 04:55:59;;;;;;;;;122.00;94.00;;;;;1.16;100.00;99838.41;6281801;20;3692948;-52
2022/12/30 04:58:28;;;;;;;;;117.00;90.00;;;;;1.03;100.00;99811.34;6283637;20;3690870;-52
2022/12/30 05:00:58;;;;;;;;;129.67;97.67;;;;;1.09;100.00;99837.63;6279914;20;3693993;-49
2022/12/30 05:03:29;;;;;;;;;143.00;113.50;;;;;0.92;100.00;99833.59;6284815;20;4482541;-51
2022/12/30 05:05:59;;;;;;;;;141.50;100.50;;;;;1.04;100.00;99839.50;6281593;20;3720518;-51
2022/12/30 05:08:29;;;;;;;;;142.33;103.00;;;;;0.76;100.00;99840.94;6281203;20;3713849;-49
2022/12/30 05:11:00;;;;;;;;;120.50;99.00;;;;;0.86;100.00;99845.16;6282503;20;3703438;-51
2022/12/30 05:13:29;;;;;;;;;135.67;95.33;;;;;0.89;100.00;99855.66;6281291;20;3698256;-51
2022/12/30 05:15:59;;;;;;;;;120.33;101.33;;;;;0.81;100.00;99847.00;6281919;20;3708649;-51
2022/12/30 05:18:29;;;;;;;;;133.00;98.33;;;;;0.90;100.00;99846.84;6283468;20;3695074;-48
2022/12/30 05:20:59;;;;;;;;;140.00;112.50;;;;;1.05;100.00;99849.19;6281830;20;4486682;-48
2022/12/30 05:26:17;;;;;;;;;122.00;96.00;;;;;0.93;100.00;99846.78;6281195;20;3701296;-50
2022/12/30 05:28:49;;;;;;;;;129.00;97.67;;;;;1.00;100.00;99843.13;6284718;20;3695152;-47
2022/12/30 05:31:20;;;;;;;;;106.33;76.33;;;;;0.96;100.00;99851.13;6284306;20;3695166;-48
2022/12/30 05:33:50;;;;;;;;;110.00;88.67;;;;;0.95;100.00;99850.28;6285757;20;3703394;-53
2022/12/30 05:36:20;;;;;;;;;129.00;82.67;;;;;0.99;100.00;99859.00;6280842;20;3696099;-53
2022/12/30 05:38:49;;;;;;;;;124.33;96.33;;;;;0.99;100.00;99872.22;6284234;20;3705456;-50
2022/12/30 05:41:19;;;;;;;;;124.00;93.33;;;;;0.99;100.00;99873.09;6283223;20;3697215;-51
2022/12/30 05:43:50;;;;;;;;;152.00;121.25;;;;;1.03;100.00;99869.50;6283535;20;3727364;-49
2022/12/30 05:46:21;;;;;;;;;157.50;123.50;;;;;1.11;100.00;99866.69;6312971;20;4482552;-48
2022/12/30 05:48:52;;;;;;;;;156.25;120.50;;;;;1.03;100.00;99868.63;6313805;20;3727326;-53
2022/12/30 05:51:22;;;;;;;;;126.33;90.67;;;;;1.03;100.00;99876.56;6312368;20;3694012;-53
2022/12/30 05:53:52;;;;;;;;;129.25;103.25;;;;;0.73;100.00;99875.34;6280511;20;3721078;-53
2022/12/30 05:56:23;;;;;;;;;136.50;106.75;;;;;1.00;100.00;99864.28;6279379;20;4481506;-51
2022/12/30 05:58:53;;;;;;;;;129.00;99.67;;;;;0.59;100.00;99871.19;6315053;20;3706508;-51
2022/12/30 06:01:22;;;;;;;;;118.00;94.00;;;;;0.93;100.00;99877.63;6283183;20;3694028;-50
2022/12/30 06:03:57;;;;;;;;;139.50;104.75;;;;;0.92;100.00;99886.44;6282516;20;4493961;-54
2022/12/30 06:06:27;;;;;;;;;123.00;98.67;;;;;0.82;100.00;99891.94;6313290;20;3696133;-51
2022/12/30 06:08:57;;;;;;;;;182.25;143.50;;;;;1.05;100.00;99890.59;6285210;20;4482546;-52
2022/12/30 06:11:27;;;;;;;;;134.00;104.00;;;;;0.95;100.00;99887.28;6284665;20;3601436;-49
2022/12/30 06:13:57;;;;;;;;;121.00;94.00;;;;;0.78;100.00;99878.78;6314050;20;3688842;-53
2022/12/30 06:16:26;;;;;;;;;121.67;95.00;;;;;1.12;100.00;99883.44;6281460;20;3677508;-48
2022/12/30 06:18:57;;;;;;;;;128.50;96.25;;;;;1.05;100.00;99885.31;6281470;20;3704566;-51
2022/12/30 06:21:27;;;;;;;;;111.33;89.67;;;;;0.97;100.00;99881.94;6315565;20;3672213;-52
2022/12/30 06:23:56;;;;;;;;;130.00;97.00;;;;;0.84;100.00;99892.78;6284329;20;3685766;-50
2022/12/30 06:26:26;;;;;;;;;119.33;97.67;;;;;0.99;100.00;99894.22;6280817;20;3696119;-55
2022/12/30 06:28:54;;;;;;;;;113.50;87.00;;;;;1.07;100.00;99902.88;6276012;20;1956542;-51
2022/12/30 06:31:24;;;;;;;;;126.00;95.33;;;;;1.14;100.00;99908.06;6278990;20;3701323;-49
2022/12/30 06:33:53;;;;;;;;;101.00;68.67;;;;;1.09;100.00;99908.16;6282116;20;3697439;-54
2022/12/30 06:36:23;;;;;;;;;112.67;91.33;;;;;1.04;100.00;99908.25;6280369;20;3692054;-52
2022/12/30 06:38:54;;;;;;;;;131.50;98.75;;;;;1.23;100.00;99913.16;6280176;20;4463811;-50
2022/12/30 06:41:24;;;;;;;;;128.50;95.50;;;;;1.24;100.00;99920.22;6280729;20;4466922;-52
2022/12/30 06:43:55;;;;;;;;;139.50;102.75;;;;;0.89;100.00;99921.75;6283047;20;4481524;-52
2022/12/30 06:46:25;;;;;;;;;115.25;96.00;;;;;0.94;100.00;99922.53;6279563;20;3703446;-52
2022/12/30 06:48:55;;;;;;;;;135.33;106.33;;;;;0.79;100.00;99915.78;6313101;20;3705597;-53
2022/12/30 06:51:25;;;;;;;;;144.50;108.25;;;;;0.93;100.00;99918.16;6281751;20;3722232;-52
2022/12/30 06:53:55;;;;;;;;;116.00;95.67;;;;;0.96;100.00;99920.72;6280873;20;3701465;-49
2022/12/30 06:56:25;;;;;;;;;123.33;100.00;;;;;0.95;100.00;99921.66;6282915;20;3706668;-52
2022/12/30 06:58:55;;;;;;;;;133.75;100.50;;;;;1.14;100.00;99913.38;6273346;20;3735186;-52
2022/12/30 07:01:25;;;;;;;;;129.00;97.33;;;;;1.15;100.00;99921.25;6278147;20;3707672;-52
2022/12/30 07:03:54;;;;;;;;;118.00;95.00;;;;;1.13;100.00;99930.13;6281155;20;2823465;-54
2022/12/30 07:06:24;;;;;;;;;111.33;90.33;;;;;1.13;100.00;99919.53;6280825;20;3704527;-50
2022/12/30 07:08:53;;;;;;;;;106.00;77.67;;;;;1.08;100.00;99930.22;6281559;20;3692984;-51
2022/12/30 07:11:23;;;;;;;;;104.00;84.67;;;;;1.21;100.00;99936.13;6281906;20;3687812;-54
2022/12/30 07:13:53;;;;;;;;;116.33;89.00;;;;;1.12;100.00;99938.97;6282146;20;3679501;-51
2022/12/30 07:16:23;;;;;;;;;115.67;83.33;;;;;1.10;100.00;99937.19;6279523;20;3701388;-49
2022/12/30 07:18:52;;;;;;;;;111.00;95.33;;;;;1.18;100.00;99944.97;6281398;20;3678368;-53
2022/12/30 07:21:22;;;;;;;;;108.67;90.00;;;;;1.16;100.00;99957.38;6280985;20;3693108;-54
2022/12/30 07:23:52;;;;;;;;;106.00;87.00;;;;;1.12;100.00;99958.34;6281829;20;3696167;-50
2022/12/30 07:26:21;;;;;;;;;106.00;82.33;;;;;1.20;100.00;99959.06;6281864;20;3705511;-50
2022/12/30 07:28:55;;;;;;;;;112.67;88.33;;;;;1.30;100.00;99962.41;6280627;20;3690867;-50
2022/12/30 07:31:26;;;;;;;;;138.50;102.25;;;;;1.27;100.00;99958.03;6281389;20;3724383;-52
2022/12/30 07:33:55;;;;;;;;;119.00;96.33;;;;;1.40;100.00;99971.91;6315229;20;3692133;-50
2022/12/30 07:36:25;;;;;;;;;109.00;85.67;;;;;1.31;100.00;99969.44;6281546;20;3689880;-53
2022/12/30 07:38:58;;;;;;;;;109.00;85.67;;;;;1.22;100.00;99974.91;6283663;20;3694057;-50
2022/12/30 07:41:27;;;;;;;;;118.33;89.00;;;;;1.35;100.00;99970.25;6281941;20;3700277;-52
2022/12/30 07:43:57;;;;;;;;;115.00;95.00;;;;;1.20;100.00;99982.00;6282295;20;3700315;-51
2022/12/30 07:46:27;;;;;;;;;130.00;91.33;;;;;1.40;100.00;99979.84;6281445;20;3688937;-53
2022/12/30 07:48:57;;;;;;;;;188.00;139.25;;;;;1.43;100.00;99979.78;6282739;20;4485818;-53
2022/12/30 07:51:27;;;;;;;;;205.00;153.00;;;;;1.60;100.00;99981.22;6276429;20;4497133;-52
2022/12/30 07:53:59;;;;;;;;;138.00;106.25;;;;;1.29;100.00;99971.22;6278611;20;3721130;-53
2022/12/30 07:56:37;;;;;;;;;138.25;102.00;;;;;1.35;100.00;99975.56;6311180;20;3724317;-51
2022/12/30 07:59:07;;;;;;;;;132.00;98.00;;;;;1.27;100.00;99978.34;6312681;20;3703549;-49
2022/12/30 08:01:37;;;;;;;;;117.67;86.67;;;;;1.34;100.00;99974.66;6274814;20;3689895;-52
2022/12/30 08:04:07;;;;;;;;;116.33;92.00;;;;;1.30;100.00;99991.50;6280209;20;3703440;-51
2022/12/30 08:06:57;;;;;;;;;144.00;110.50;;;;;1.31;100.00;99996.75;6278715;20;4486755;-54
2022/12/30 08:09:25;;;;;;;;;142.50;113.00;;;;;1.33;100.00;99994.09;6275867;20;1960799;-54
2022/12/30 08:11:55;;;;;;;;;122.67;99.67;;;;;1.59;100.00;99998.88;6283281;20;3701308;-49
2022/12/30 08:14:26;;;;;;;;;122.50;99.75;;;;;1.85;100.00;100002.78;6286875;20;4471101;-50
2022/12/30 08:16:56;;;;;;;;;114.33;89.33;;;;;1.71;100.00;100006.56;6286139;20;3691935;-52
2022/12/30 08:19:28;;;;;;;;;112.50;90.00;;;;;1.61;100.00;100010.31;6282954;20;3709668;-51
2022/12/30 08:21:58;;;;;;;;;114.00;95.00;;;;;1.87;100.00;100009.78;6277656;20;3691939;-51
2022/12/30 08:24:27;;;;;;;;;101.67;80.33;;;;;2.02;100.00;100005.91;6279550;20;3679509;-49
2022/12/30 08:26:57;;;;;;;;;109.67;86.33;;;;;2.07;100.00;100006.69;6283260;20;3686798;-52
2022/12/30 08:29:27;;;;;;;;;263.00;216.50;;;;;2.47;100.00;100004.91;6282728;20;4482596;-52
2022/12/30 08:31:59;;;;;;;;;130.00;96.25;;;;;2.65;100.00;100015.09;6317513;20;3706776;-49
2022/12/30 08:34:27;;;;;;;;;170.50;128.50;;;;;2.51;100.00;100022.50;6272918;20;1958782;-48
2022/12/30 08:36:57;;;;;;;;;111.00;88.67;;;;;2.59;100.00;100025.84;6280015;20;3699331;-53
2022/12/30 08:39:27;;;;;;;;;104.67;82.67;;;;;2.61;100.00;100031.97;6281739;20;3701323;-51
2022/12/30 08:41:56;;;;;;;;;104.00;88.00;;;;;2.71;100.00;100022.00;6286462;20;3689886;-49
2022/12/30 08:44:26;;;;;;;;;112.67;89.00;;;;;2.48;100.00;100011.97;6284160;20;3700389;-50
2022/12/30 08:46:56;;;;;;;;;105.67;73.00;;;;;2.35;100.00;100017.56;6285174;20;3688862;-51
2022/12/30 08:49:26;;;;;;;;;105.00;79.00;;;;;2.29;100.00;100023.00;6283116;20;3697293;-53
2022/12/30 08:51:56;;;;;;;;;120.67;89.67;;;;;2.45;100.00;100015.56;6283623;20;3701328;-54
2022/12/30 08:54:25;;;;;;;;;108.00;86.67;;;;;2.53;100.00;100015.41;6283133;20;3701492;-54
2022/12/30 08:56:56;;;;;;;;;241.25;200.00;;;;;2.45;100.00;100004.97;6285582;20;3711866;-52
2022/12/30 08:59:25;;;;;;;;;123.33;88.67;;;;;2.39;100.00;100024.50;6279704;20;3702349;-53
2022/12/30 09:01:55;;;;;;;;;144.33;111.33;;;;;2.46;100.00;100021.72;6285856;20;3724249;-53
2022/12/30 09:04:25;;;;;;;;;129.00;97.67;;;;;2.36;100.00;100013.97;6280495;20;3711882;-53
2022/12/30 09:06:55;;;;;;;;;131.67;100.33;;;;;2.51;100.00;100025.16;6282536;20;3708616;-54
2022/12/30 09:09:25;;;;;;;;;167.00;136.00;;;;;2.44;100.00;100029.72;6284413;20;3721171;-53
2022/12/30 09:11:56;;;;;;;;;108.75;86.25;;;;;2.66;100.00;100030.09;6282177;20;3705481;-51
2022/12/30 09:14:25;;;;;;;;;123.67;90.67;;;;;2.72;100.00;100029.94;6314087;20;3692057;-51
2022/12/30 09:16:55;;;;;;;;;176.00;141.00;;;;;2.70;100.00;100037.06;6284219;20;3720209;-56
2022/12/30 09:19:26;;;;;;;;;137.25;102.75;;;;;2.81;100.00;100036.78;6280446;20;4485795;-54
2022/12/30 09:21:56;;;;;;;;;236.25;203.00;;;;;2.78;100.00;100026.25;6282741;20;4509629;-54
2022/12/30 09:24:27;;;;;;;;;157.75;126.25;;;;;2.92;100.00;100020.63;6318023;20;4494028;-57
2022/12/30 09:26:57;;;;;;;;;149.75;100.25;;;;;2.97;100.00;100024.88;6285217;20;4480527;-53
2022/12/30 09:29:29;;;;;;;;;106.33;87.33;;;;;2.93;100.00;100027.69;6278148;20;3701341;-59
2022/12/30 09:31:59;;;;;;;;;111.00;86.33;;;;;2.73;100.00;100026.38;6284894;20;3687883;-55
2022/12/30 09:34:29;;;;;;;;;102.67;75.00;;;;;2.83;100.00;100019.94;6284681;20;3687817;-57
2022/12/30 09:36:58;;;;;;;;;116.50;97.00;;;;;3.00;100.00;100024.84;6286777;20;4473175;-52
2022/12/30 09:39:32;;;;;;;;;120.50;88.00;;;;;2.93;100.00;100027.69;6274934;20;3690987;-56
2022/12/30 09:45:11;;;;;;;;;110.33;86.00;;;;;2.90;100.00;100033.03;6280147;20;3701498;-56
2022/12/30 09:48:04;;;;;;;;;119.00;94.00;;;;;2.75;100.00;100035.16;6278439;20;3693147;-56
2022/12/30 09:51:01;;;;;;;;;131.75;103.00;;;;;2.63;100.00;100038.09;6275730;20;4487785;-58
2022/12/30 09:53:52;;;;;;;;;139.50;109.50;;;;;2.61;100.00;100042.59;6306931;20;1954826;-55
2022/12/30 09:56:35;;;;;;;;;128.25;101.00;;;;;2.89;100.00;100037.47;6278734;20;4489843;-56
2022/12/30 09:59:42;;;;;;;;;133.33;96.67;;;;;3.10;100.00;100041.38;6279438;20;3714056;-53
2022/12/30 10:02:45;;;;;;;;;123.25;94.25;;;;;3.02;100.00;100027.44;6280218;20;3710828;-54
2022/12/30 10:05:16;;;;;;;;;127.67;98.33;;;;;3.09;100.00;100021.06;6278001;20;3705628;-56
2022/12/30 10:08:24;;;;;;;;;121.75;96.75;;;;;3.18;100.00;100017.31;6308932;20;3714984;-56
2022/12/30 10:11:13;;;;;;;;;138.50;107.00;;;;;3.45;100.00;100015.69;6265115;20;1951340;-55
2022/12/30 10:14:21;;;;;;;;;181.50;136.75;;;;;3.39;100.00;100016.72;6281672;20;4486714;-54
2022/12/30 10:17:45;;;;;;;;;138.75;108.75;;;;;3.14;100.00;100024.47;6280713;20;4486762;-54
2022/12/30 10:20:51;;;;;;;;;127.25;101.25;;;;;3.22;100.00;100018.97;6278919;20;4485680;-53
2022/12/30 10:24:11;;;;;;;;;308.33;251.67;;;;;3.64;100.00;100001.00;6279543;20;3728346;-55
2022/12/30 10:26:49;;;;;;;;;131.75;103.50;;;;;3.36;100.00;100003.53;6278030;20;4491943;-51
2022/12/30 10:29:32;;;;;;;;;120.33;98.33;;;;;3.47;100.00;99997.94;6279343;20;3697137;-56
2022/12/30 10:32:30;;;;;;;;;120.67;91.00;;;;;3.32;100.00;100001.91;6280628;20;3697222;-54
2022/12/30 10:35:24;;;;;;;;;130.00;101.25;;;;;3.55;100.00;99998.59;6278905;20;3714900;-51
2022/12/30 10:38:20;;;;;;;;;146.25;119.50;;;;;3.71;100.00;99996.38;6314161;20;4497173;-55
2022/12/30 10:41:48;;;;;;;;;127.25;94.00;;;;;3.45;100.00;100005.06;6278813;20;4473162;-54
2022/12/30 10:44:48;;;;;;;;;122.00;88.50;;;;;3.55;100.00;99985.31;6280907;20;3718109;-56
2022/12/30 10:47:58;;;;;;;;;115.00;91.33;;;;;3.66;100.00;100004.50;6316398;20;3703404;-54
2022/12/30 10:50:53;;;;;;;;;111.25;86.25;;;;;3.66;100.00;99999.19;6279632;20;3694453;-55
2022/12/30 10:53:30;;;;;;;;;104.75;80.75;;;;;3.88;100.00;99999.44;6280362;20;3704532;-55
2022/12/30 10:56:03;;;;;;;;;103.33;83.33;;;;;3.63;100.00;100014.31;6278787;20;3692958;-52
2022/12/30 10:58:58;;;;;;;;;92.67;67.33;;;;;3.73;100.00;100010.50;6277416;20;3661845;-54
2022/12/30 11:01:34;;;;;;;;;124.67;92.33;;;;;4.03;100.00;99999.88;6276078;20;3696131;-53
2022/12/30 11:04:04;;;;;;;;;118.33;90.00;;;;;4.01;100.00;99996.44;6277246;20;3701408;-51
2022/12/30 11:06:37;;;;;;;;;105.67;86.67;;;;;3.93;100.00;100001.97;6274235;20;3695158;-56
2022/12/30 11:09:13;;;;;;;;;117.00;92.00;;;;;4.11;100.00;100004.06;6277166;20;3709663;-55
2022/12/30 11:15:18;;;;;;;;;99.33;86.00;;;;;3.86;100.00;100009.22;6279367;20;3675418;-52
2022/12/30 11:17:56;;;;;;;;;124.00;92.00;;;;;4.16;100.00;100015.44;6281608;20;3701400;-51
2022/12/30 11:20:39;;;;;;;;;110.00;89.33;;;;;3.96;100.00;100017.81;6276077;20;3698216;-53
2022/12/30 11:23:40;;;;;;;;;123.33;93.33;;;;;3.92;100.00;100019.69;6277200;20;3710774;-53
2022/12/30 11:26:20;;;;;;;;;115.50;88.00;;;;;3.96;100.00;100007.19;6307657;20;3712149;-54
2022/12/30 11:29:09;;;;;;;;;113.00;82.33;;;;;3.95;100.00;100005.44;6276884;20;3708632;-52
2022/12/30 11:31:45;;;;;;;;;122.67;90.67;;;;;3.74;100.00;99991.88;6280886;20;3709759;-53
2022/12/30 11:34:36;;;;;;;;;117.67;90.00;;;;;4.16;100.00;99999.50;6280025;20;3696293;-52
2022/12/30 11:37:41;;;;;;;;;114.67;81.67;;;;;4.18;100.00;100005.59;6279571;20;3701301;-54
2022/12/30 11:40:34;;;;;;;;;96.33;85.00;;;;;4.21;100.00;100007.31;6274342;20;3665922;-56
2022/12/30 11:43:14;;;;;;;;;132.50;112.25;;;;;4.48;100.00;100002.94;6279535;20;4485629;-57
2022/12/30 11:46:01;;;;;;;;;112.50;87.50;;;;;4.11;100.00;100003.22;6280789;20;3706522;-53
2022/12/30 11:48:38;;;;;;;;;111.00;86.75;;;;;4.04;100.00;100005.16;6312086;20;3696122;-57
2022/12/30 11:51:43;;;;;;;;;104.67;80.67;;;;;4.38;100.00;100009.47;6276791;20;3687809;-53
2022/12/30 11:54:33;;;;;;;;;97.67;76.67;;;;;4.19;100.00;100009.16;6280100;20;3676356;-55
2022/12/30 11:57:32;;;;;;;;;107.67;86.67;;;;;4.38;100.00;100012.13;6280626;20;3690926;-51
2022/12/30 12:00:18;;;;;;;;;104.00;78.00;;;;;4.63;100.00;100009.53;6277965;20;3703365;-53
2022/12/30 12:03:14;;;;;;;;;95.00;78.67;;;;;4.70;100.00;100010.22;6312724;20;3659652;-55
2022/12/30 12:05:45;;;;;;;;;102.67;80.33;;;;;4.49;100.00;100007.31;6277319;20;3695215;-52
2022/12/30 12:08:43;;;;;;;;;97.67;74.67;;;;;4.34;100.00;100002.47;6279871;20;3683684;-53
2022/12/30 12:11:27;;;;;;;;;135.33;106.33;;;;;4.79;100.00;99999.28;6279208;20;3728398;-53
2022/12/30 12:14:28;;;;;;;;;106.00;83.33;;;;;4.62;100.00;99998.03;6277393;20;3681610;-54
2022/12/30 12:17:36;;;;;;;;;95.33;76.00;;;;;4.75;100.00;100003.84;6278466;20;3682653;-55
2022/12/30 12:21:01;;;;;;;;;102.00;81.33;;;;;4.52;100.00;99995.72;6278304;20;3697204;-53
2022/12/30 12:24:22;;;;;;;;;97.67;81.33;;;;;4.67;100.00;100000.56;6276329;20;3681515;-53
2022/12/30 12:27:18;;;;;;;;;110.75;86.75;;;;;4.66;100.00;100003.25;6275516;20;3711856;-54